Time;durP1;ratioP1;P1;durP2;ratioP2;P2;SDS_P1;SDS_P2;PMS_P1;PMS_P2;Temp;Humidity;BMP_temperature;BMP_pressure;BME280_temperature;BME280_humidity;BME280_pressure;Samples;Min_cycle;Max_cycle;Signal;HPM_P1;HPM_P2
2022/08/11 00:00:58;;;;;;;3.28;2.15;;;;;;;;;;4994881;28;20074;-71
2022/08/11 00:03:25;;;;;;;3.42;1.67;;;;;;;;;;5009688;28;20054;-71
2022/08/11 00:06:09;;;;;;;2.35;1.98;;;;;;;;;;5012946;28;20068;-72
2022/08/11 00:08:36;;;;;;;2.60;2.03;;;;;;;;;;5011758;28;20057;-71
2022/08/11 00:11:05;;;;;;;4.47;1.88;;;;;;;;;;5012050;28;20049;-71
2022/08/11 00:13:41;;;;;;;2.00;1.77;;;;;;;;;;5011906;28;20057;-71
2022/08/11 00:16:15;;;;;;;2.00;1.38;;;;;;;;;;5013097;28;20097;-71
2022/08/11 00:18:48;;;;;;;2.83;1.98;;;;;;;;;;5012740;28;20058;-71
2022/08/11 00:21:14;;;;;;;4.82;1.90;;;;;;;;;;5011883;28;20054;-71
2022/08/11 00:23:46;;;;;;;2.97;1.92;;;;;;;;;;5012734;28;20056;-71
2022/08/11 00:26:14;;;;;;;2.88;2.03;;;;;;;;;;4996396;28;20068;-71
2022/08/11 00:28:42;;;;;;;3.65;2.50;;;;;;;;;;5011556;28;20050;-71
2022/08/11 00:31:19;;;;;;;2.42;1.77;;;;;;;;;;5013616;28;20050;-71
2022/08/11 00:33:46;;;;;;;3.25;1.90;;;;;;;;;;5024840;28;20038;-72
2022/08/11 00:36:15;;;;;;;4.00;1.90;;;;;;;;;;5025514;28;20050;-71
2022/08/11 00:38:44;;;;;;;2.25;2.08;;;;;;;;;;5018389;28;20054;-71
2022/08/11 00:41:48;;;;;;;1.98;1.77;;;;;;;;;;5011634;28;20090;-71
2022/08/11 00:44:59;;;;;;;4.20;2.10;;;;;;;;;;4995638;28;20092;-71
2022/08/11 00:47:34;;;;;;;2.20;2.00;;;;;;;;;;4993069;28;20129;-71
2022/08/11 00:50:10;;;;;;;2.88;2.15;;;;;;;;;;5002499;28;20045;-71
2022/08/11 00:53:04;;;;;;;1.70;1.60;;;;;;;;;;5011487;28;20050;-71
2022/08/11 00:56:02;;;;;;;2.83;2.13;;;;;;;;;;4994855;28;20050;-71
2022/08/11 00:58:47;;;;;;;2.25;1.73;;;;;;;;;;4995179;28;20054;-71
2022/08/11 01:01:16;;;;;;;3.00;2.08;;;;;;;;;;4992745;28;20074;-72
2022/08/11 01:04:16;;;;;;;3.22;1.67;;;;;;;;;;4996518;28;20050;-71
2022/08/11 01:06:48;;;;;;;3.22;2.03;;;;;;;;;;5011419;28;20049;-71
2022/08/11 01:09:48;;;;;;;4.22;2.95;;;;;;;;;;4996779;28;20050;-71
2022/08/11 01:12:27;;;;;;;2.50;2.00;;;;;;;;;;4996623;28;20096;-72
2022/08/11 01:15:00;;;;;;;2.53;2.17;;;;;;;;;;4995206;28;20050;-71
2022/08/11 01:17:54;;;;;;;4.43;2.30;;;;;;;;;;4996545;28;20054;-71
2022/08/11 01:20:48;;;;;;;5.05;2.55;;;;;;;;;;4996074;28;20057;-71
2022/08/11 01:23:46;;;;;;;2.85;2.20;;;;;;;;;;5013020;28;20061;-70
2022/08/11 01:26:47;;;;;;;5.13;2.28;;;;;;;;;;5014737;28;20497;-72
2022/08/11 01:29:22;;;;;;;2.15;1.92;;;;;;;;;;5016084;28;20054;-71
2022/08/11 01:31:55;;;;;;;4.13;2.25;;;;;;;;;;5016036;28;20333;-71
2022/08/11 01:34:25;;;;;;;3.28;2.30;;;;;;;;;;5015895;28;20508;-71
2022/08/11 01:37:12;;;;;;;4.28;2.65;;;;;;;;;;5016085;28;20053;-71
2022/08/11 01:40:08;;;;;;;3.35;2.20;;;;;;;;;;5014237;28;20141;-71
2022/08/11 01:45:31;;;;;;;3.00;2.28;;;;;;;;;;5015613;28;20050;-72
2022/08/11 01:48:08;;;;;;;2.63;2.38;;;;;;;;;;5014510;28;20049;-72
2022/08/11 01:50:56;;;;;;;3.92;2.60;;;;;;;;;;5013687;28;20046;-72
2022/08/11 01:53:34;;;;;;;2.58;2.38;;;;;;;;;;4992030;28;20061;-71
2022/08/11 01:56:16;;;;;;;3.58;2.60;;;;;;;;;;4995687;28;20142;-71
2022/08/11 01:59:02;;;;;;;3.35;2.30;;;;;;;;;;4994552;28;20061;-72
2022/08/11 02:01:36;;;;;;;4.25;2.45;;;;;;;;;;5007767;28;20057;-72
2022/08/11 02:04:09;;;;;;;3.97;2.40;;;;;;;;;;5015320;28;20053;-70
2022/08/11 02:07:10;;;;;;;2.42;2.22;;;;;;;;;;5015424;28;20049;-72
2022/08/11 02:13:14;;;;;;;3.65;2.40;;;;;;;;;;4993892;28;20070;-69
2022/08/11 02:15:55;;;;;;;4.13;2.75;;;;;;;;;;4994227;28;20046;-70
2022/08/11 02:24:22;;;;;;;2.72;2.45;;;;;;;;;;5031151;23;20827;-70
2022/08/11 02:26:55;;;;;;;4.45;2.70;;;;;;;;;;5029263;28;20046;-69
2022/08/11 02:29:29;;;;;;;4.35;2.70;;;;;;;;;;5012760;28;20057;-69
2022/08/11 02:35:20;;;;;;;3.83;2.30;;;;;;;;;;4993888;28;20054;-70
2022/08/11 02:38:10;;;;;;;4.20;2.67;;;;;;;;;;4993236;28;20547;-70
2022/08/11 02:40:51;;;;;;;3.72;2.63;;;;;;;;;;4980082;28;20043;-70
2022/08/11 02:43:48;;;;;;;3.90;2.78;;;;;;;;;;4994523;28;20054;-70
2022/08/11 02:46:24;;;;;;;2.90;2.50;;;;;;;;;;5008917;28;20476;-70
2022/08/11 02:52:06;;;;;;;4.20;2.72;;;;;;;;;;4994283;28;20054;-70
2022/08/11 02:55:06;;;;;;;5.13;2.50;;;;;;;;;;4993273;28;20497;-70
2022/08/11 02:57:52;;;;;;;3.22;2.60;;;;;;;;;;5008783;28;20050;-69
2022/08/11 03:00:21;;;;;;;4.20;2.45;;;;;;;;;;4992815;28;20058;-69
2022/08/11 03:03:05;;;;;;;4.40;2.95;;;;;;;;;;4993169;28;20054;-69
2022/08/11 03:06:00;;;;;;;2.95;2.75;;;;;;;;;;5009207;28;20050;-70
2022/08/11 03:09:05;;;;;;;3.45;2.75;;;;;;;;;;4992842;28;20168;-70
2022/08/11 03:17:54;;;;;;;2.53;2.33;;;;;;;;;;4987269;28;20402;-69
2022/08/11 03:20:30;;;;;;;4.85;2.65;;;;;;;;;;4975655;28;20054;-70
2022/08/11 03:23:33;;;;;;;3.90;2.75;;;;;;;;;;4985306;28;20141;-69
2022/08/11 03:26:08;;;;;;;4.50;2.72;;;;;;;;;;4972290;28;20432;-70
2022/08/11 03:28:41;;;;;;;2.75;2.15;;;;;;;;;;4974333;28;20399;-69
2022/08/11 03:31:26;;;;;;;4.93;2.47;;;;;;;;;;4982466;28;20050;-70
2022/08/11 03:34:06;;;;;;;3.50;2.17;;;;;;;;;;4992355;28;20065;-69
2022/08/11 03:36:49;;;;;;;2.88;2.55;;;;;;;;;;4992676;28;20053;-70
2022/08/11 03:40:02;;;;;;;3.10;2.65;;;;;;;;;;4993239;28;20050;-69
2022/08/11 03:42:39;;;;;;;3.35;2.30;;;;;;;;;;5008034;28;20088;-70
2022/08/11 03:45:12;;;;;;;3.15;2.85;;;;;;;;;;5008420;28;20054;-69
2022/08/11 03:48:13;;;;;;;3.72;2.63;;;;;;;;;;4993515;28;20078;-69
2022/08/11 03:51:14;;;;;;;7.20;2.78;;;;;;;;;;5004742;28;20047;-70
2022/08/11 03:53:59;;;;;;;3.05;2.75;;;;;;;;;;4988550;28;20050;-70
2022/08/11 03:56:39;;;;;;;3.67;2.95;;;;;;;;;;4973614;28;20062;-69
2022/08/11 03:59:16;;;;;;;3.38;3.08;;;;;;;;;;4987858;28;20061;-69
2022/08/11 04:02:16;;;;;;;3.08;2.70;;;;;;;;;;4985842;28;20057;-70
2022/08/11 04:05:16;;;;;;;3.33;2.70;;;;;;;;;;4993034;28;20050;-70
2022/08/11 04:08:04;;;;;;;2.95;2.65;;;;;;;;;;5005911;28;20525;-69
2022/08/11 04:11:11;;;;;;;3.45;3.00;;;;;;;;;;4990643;28;20489;-69
2022/08/11 04:17:36;;;;;;;4.70;2.55;;;;;;;;;;4971426;28;20058;-70
2022/08/11 04:20:16;;;;;;;3.30;3.00;;;;;;;;;;4973277;28;20047;-68
2022/08/11 04:23:02;;;;;;;5.38;2.80;;;;;;;;;;5007631;28;20054;-67
2022/08/11 04:25:36;;;;;;;4.38;2.95;;;;;;;;;;4992771;28;20073;-68
2022/08/11 04:28:43;;;;;;;9.95;2.85;;;;;;;;;;5004939;28;20108;-68
2022/08/11 04:31:43;;;;;;;5.38;2.70;;;;;;;;;;4990840;28;20101;-68
2022/08/11 04:34:48;;;;;;;5.85;2.58;;;;;;;;;;4973104;28;20113;-68
2022/08/11 04:37:42;;;;;;;4.32;2.97;;;;;;;;;;5009238;28;20511;-68
2022/08/11 04:40:41;;;;;;;3.85;2.92;;;;;;;;;;4979234;28;20054;-67
2022/08/11 04:43:33;;;;;;;5.32;3.30;;;;;;;;;;4991199;28;20062;-68
2022/08/11 04:46:20;;;;;;;5.03;3.35;;;;;;;;;;4992445;28;20054;-68
2022/08/11 05:01:42;;;;;;;3.08;2.72;;;;;;;;;;4991276;28;20051;-68
2022/08/11 05:07:44;;;;;;;7.70;3.67;;;;;;;;;;4992176;28;20050;-68
2022/08/11 05:10:21;;;;;;;3.85;3.25;;;;;;;;;;4992695;28;20489;-68
2022/08/11 05:12:55;;;;;;;6.95;3.03;;;;;;;;;;4991090;28;20474;-67
2022/08/11 05:35:48;;;;;;;6.65;3.20;;;;;;;;;;4978331;28;20089;-68
2022/08/11 05:58:02;;;;;;;4.07;2.38;;;;;;;;;;4980887;28;20046;-68
2022/08/11 06:00:30;;;;;;;2.63;2.42;;;;;;;;;;4992271;28;20062;-69
2022/08/11 06:03:00;;;;;;;3.75;2.75;;;;;;;;;;4976105;28;20058;-69
2022/08/11 06:05:32;;;;;;;4.82;3.15;;;;;;;;;;4991990;28;20062;-69
2022/08/11 06:08:09;;;;;;;6.45;2.90;;;;;;;;;;4991999;28;20050;-69
2022/08/11 06:10:39;;;;;;;4.20;2.47;;;;;;;;;;4993346;28;20054;-69
2022/08/11 06:13:06;;;;;;;3.42;2.50;;;;;;;;;;4991370;28;20409;-69
2022/08/11 06:15:33;;;;;;;4.28;2.67;;;;;;;;;;4975817;28;20468;-69
2022/08/11 06:18:01;;;;;;;2.80;2.47;;;;;;;;;;4991563;28;20046;-69
2022/08/11 06:20:35;;;;;;;4.57;2.20;;;;;;;;;;4959683;28;20489;-69
2022/08/11 06:23:03;;;;;;;2.40;2.20;;;;;;;;;;4972454;28;20130;-69
2022/08/11 06:25:34;;;;;;;2.88;2.47;;;;;;;;;;4988028;28;20055;-69
2022/08/11 06:28:06;;;;;;;2.45;2.17;;;;;;;;;;4972023;28;20075;-68
2022/08/11 06:30:41;;;;;;;4.88;2.38;;;;;;;;;;4972274;28;20046;-69
2022/08/11 06:33:18;;;;;;;3.58;2.42;;;;;;;;;;4972071;28;20505;-69
2022/08/11 06:36:01;;;;;;;3.63;2.28;;;;;;;;;;4968623;28;20061;-69
2022/08/11 06:38:36;;;;;;;6.03;3.05;;;;;;;;;;4990024;28;20042;-69
2022/08/11 06:44:10;;;;;;;4.35;2.75;;;;;;;;;;4991477;28;20050;-69
2022/08/11 06:46:38;;;;;;;7.63;2.80;;;;;;;;;;4992484;28;20054;-69
2022/08/11 06:51:10;;;;;;;3.45;2.42;;;;;;;;;;4980439;28;20070;-69
2022/08/11 06:52:00;;;;;;;5.25;2.15;;;;;;;;;;4985155;28;20272;-69
2022/08/11 06:54:31;;;;;;;4.70;2.42;;;;;;;;;;4971608;28;20051;-69
2022/08/11 07:02:52;;;;;;;3.15;2.38;;;;;;;;;;4991799;28;20137;-69
2022/08/11 07:05:25;;;;;;;4.43;2.50;;;;;;;;;;4990851;28;20058;-69
2022/08/11 07:15:40;;;;;;;4.47;3.00;;;;;;;;;;4994207;28;20485;-69
2022/08/11 07:17:25;;;;;;;4.93;2.45;;;;;;;;;;4975747;28;20042;-70
2022/08/11 07:31:12;;;;;;;6.30;2.45;;;;;;;;;;4972693;28;20058;-67
2022/08/11 07:33:50;;;;;;;6.07;2.60;;;;;;;;;;4976621;28;20054;-68
2022/08/11 07:36:41;;;;;;;2.95;2.35;;;;;;;;;;4991477;28;20058;-68
2022/08/11 07:39:14;;;;;;;2.90;2.60;;;;;;;;;;4993078;28;20469;-68
2022/08/11 07:41:40;;;;;;;5.55;2.10;;;;;;;;;;4991893;28;20133;-69
2022/08/11 07:44:10;;;;;;;5.60;2.35;;;;;;;;;;4991563;28;20047;-68
2022/08/11 07:52:33;;;;;;;3.75;2.30;;;;;;;;;;4992047;28;19921;-70
2022/08/11 07:55:05;;;;;;;4.05;2.22;;;;;;;;;;5001473;28;20046;-69
2022/08/11 08:17:51;;;;;;;4.35;2.42;;;;;;;;;;4991705;28;20042;-66
2022/08/11 08:20:46;;;;;;;2.15;1.65;;;;;;;;;;4995102;28;20047;-66
2022/08/11 08:23:12;;;;;;;3.50;2.20;;;;;;;;;;4998787;23;20098;-70
2022/08/11 08:25:41;;;;;;;5.70;2.17;;;;;;;;;;4968730;28;20555;-70
2022/08/11 08:28:10;;;;;;;2.95;2.20;;;;;;;;;;4979820;28;20046;-69
2022/08/11 08:30:50;;;;;;;3.20;1.98;;;;;;;;;;4990275;28;20050;-68
2022/08/11 08:33:21;;;;;;;2.40;1.92;;;;;;;;;;4982276;28;20058;-66
2022/08/11 08:36:10;;;;;;;2.50;2.17;;;;;;;;;;4998014;28;20058;-66
2022/08/11 08:38:50;;;;;;;3.17;2.17;;;;;;;;;;4983781;28;20089;-68
2022/08/11 08:41:28;;;;;;;4.65;2.13;;;;;;;;;;4998018;28;20080;-68
2022/08/11 08:44:01;;;;;;;6.88;1.77;;;;;;;;;;4986312;28;20046;-69
2022/08/11 08:46:51;;;;;;;2.70;1.98;;;;;;;;;;4990317;28;20057;-69
2022/08/11 08:49:21;;;;;;;2.67;1.88;;;;;;;;;;4997647;28;20046;-68
2022/08/11 08:51:54;;;;;;;3.58;1.70;;;;;;;;;;4994336;28;20049;-69
2022/08/11 08:54:42;;;;;;;5.03;1.90;;;;;;;;;;4979604;28;20100;-69
2022/08/11 08:57:10;;;;;;;1.85;1.73;;;;;;;;;;4998258;28;20046;-68
2022/08/11 08:59:41;;;;;;;2.25;1.83;;;;;;;;;;4992977;28;20134;-68
2022/08/11 09:02:17;;;;;;;2.20;1.70;;;;;;;;;;4978336;28;20080;-69
2022/08/11 09:04:46;;;;;;;4.38;2.03;;;;;;;;;;4995104;28;20084;-68
2022/08/11 09:07:16;;;;;;;2.25;1.88;;;;;;;;;;4996099;28;20051;-68
2022/08/11 09:09:44;;;;;;;2.55;1.80;;;;;;;;;;4989252;28;20049;-68
2022/08/11 09:12:11;;;;;;;2.35;1.85;;;;;;;;;;4997181;28;20501;-68
2022/08/11 09:17:26;;;;;;;4.50;1.95;;;;;;;;;;4979053;28;20058;-68
2022/08/11 09:19:59;;;;;;;3.67;1.52;;;;;;;;;;4991868;28;20087;-69
2022/08/11 09:28:20;;;;;;;2.35;1.80;;;;;;;;;;5000645;28;20709;-76
2022/08/11 09:30:54;;;;;;;2.15;1.38;;;;;;;;;;4984473;28;20050;-73
2022/08/11 09:33:22;;;;;;;3.60;1.20;;;;;;;;;;4985377;28;20073;-76
2022/08/11 09:35:50;;;;;;;4.38;1.90;;;;;;;;;;4986091;28;20061;-70
2022/08/11 09:41:04;;;;;;;3.80;2.00;;;;;;;;;;4998895;28;20049;-69
2022/08/11 09:46:19;;;;;;;1.88;1.60;;;;;;;;;;4987321;28;20425;-69
2022/08/11 09:48:46;;;;;;;4.13;2.03;;;;;;;;;;4999669;28;20056;-69
2022/08/11 09:51:12;;;;;;;2.88;1.95;;;;;;;;;;5001358;28;20390;-70
2022/08/11 09:53:41;;;;;;;2.92;1.70;;;;;;;;;;5001853;28;20049;-69
2022/08/11 09:59:12;;;;;;;2.92;1.30;;;;;;;;;;5002584;28;20053;-71
2022/08/11 10:01:44;;;;;;;2.22;1.50;;;;;;;;;;4999753;28;20050;-70
2022/08/11 10:04:18;;;;;;;2.63;1.52;;;;;;;;;;4990068;28;20078;-69
2022/08/11 10:07:01;;;;;;;3.72;1.60;;;;;;;;;;4996846;28;20069;-69
2022/08/11 10:09:59;;;;;;;1.80;1.60;;;;;;;;;;5000223;28;20047;-68
2022/08/11 10:12:36;;;;;;;1.90;1.55;;;;;;;;;;5001796;28;20060;-68
2022/08/11 10:20:40;;;;;;;2.50;1.42;;;;;;;;;;4989648;28;20042;-69
2022/08/11 10:28:37;;;;;;;3.70;1.50;;;;;;;;;;4998989;28;20042;-68
2022/08/11 10:34:25;;;;;;;2.10;1.70;;;;;;;;;;4996461;28;20687;-69
2022/08/11 10:36:55;;;;;;;2.20;1.75;;;;;;;;;;4984822;28;20058;-69
2022/08/11 10:39:22;;;;;;;3.13;1.80;;;;;;;;;;4998503;28;20054;-69
2022/08/11 10:44:49;;;;;;;1.60;1.50;;;;;;;;;;4980708;28;20409;-69
2022/08/11 10:51:13;;;;;;;2.45;1.92;;;;;;;;;;4981962;28;20053;-74
2022/08/11 11:00:31;;;;;;;1.70;1.40;;;;;;;;;;4990576;28;20056;-68
2022/08/11 11:02:59;;;;;;;1.52;1.42;;;;;;;;;;4994403;28;20030;-68
2022/08/11 11:05:46;;;;;;;2.35;1.30;;;;;;;;;;4994897;28;20077;-68
2022/08/11 11:11:22;;;;;;;2.22;1.30;;;;;;;;;;4987582;28;20100;-68
2022/08/11 11:19:24;;;;;;;3.55;2.35;;;;;;;;;;4998624;28;20493;-67
2022/08/11 11:21:53;;;;;;;2.17;1.60;;;;;;;;;;4998151;28;20042;-68
2022/08/11 11:24:26;;;;;;;5.70;1.90;;;;;;;;;;4981905;28;20057;-68
2022/08/11 11:26:56;;;;;;;2.70;1.38;;;;;;;;;;4988344;28;20474;-68
2022/08/11 11:29:55;;;;;;;1.85;1.63;;;;;;;;;;4993287;28;20050;-68
2022/08/11 11:32:34;;;;;;;2.08;1.17;;;;;;;;;;4987749;28;20046;-68
2022/08/11 11:35:34;;;;;;;5.80;1.58;;;;;;;;;;4985521;28;20054;-68
2022/08/11 11:38:01;;;;;;;1.65;1.27;;;;;;;;;;4981427;28;20302;-68
2022/08/11 11:40:31;;;;;;;7.88;1.65;;;;;;;;;;4990063;28;20043;-68
2022/08/11 11:42:58;;;;;;;2.58;1.20;;;;;;;;;;4992968;28;20571;-68
2022/08/11 11:45:25;;;;;;;2.08;1.30;;;;;;;;;;4983835;28;20051;-68
2022/08/11 11:47:58;;;;;;;1.90;1.35;;;;;;;;;;4974010;28;20420;-68
2022/08/11 11:50:33;;;;;;;2.15;1.42;;;;;;;;;;4983547;28;20564;-68
2022/08/11 11:53:06;;;;;;;1.60;1.50;;;;;;;;;;4946228;28;102952;-74
2022/08/11 11:55:33;;;;;;;3.60;1.50;;;;;;;;;;4991591;28;20520;-77
2022/08/11 12:03:33;;;;;;;3.35;1.30;;;;;;;;;;4997598;28;20104;-66
2022/08/11 12:06:00;;;;;;;3.20;1.50;;;;;;;;;;5003528;28;20075;-68
2022/08/11 12:08:26;;;;;;;2.00;1.52;;;;;;;;;;5014394;28;20128;-67
2022/08/11 12:13:46;;;;;;;2.70;1.52;;;;;;;;;;4996584;28;20046;-69
2022/08/11 12:16:14;;;;;;;3.38;1.38;;;;;;;;;;5032574;28;20492;-76
2022/08/11 12:19:02;;;;;;;1.73;1.35;;;;;;;;;;5005086;28;20042;-74
2022/08/11 12:21:29;;;;;;;1.70;1.38;;;;;;;;;;5016337;28;20416;-75
2022/08/11 12:29:35;;;;;;;1.45;1.30;;;;;;;;;;5012517;28;20073;-74
2022/08/11 12:32:09;;;;;;;4.07;1.80;;;;;;;;;;5013833;28;20132;-73
2022/08/11 12:34:35;;;;;;;2.67;1.30;;;;;;;;;;5001357;28;20042;-68
2022/08/11 12:37:04;;;;;;;3.55;1.38;;;;;;;;;;5018269;28;20061;-67
2022/08/11 12:45:29;;;;;;;4.20;1.63;;;;;;;;;;5011256;28;20053;-67
2022/08/11 12:54:45;;;;;;;1.27;1.10;;;;;;;;;;4991656;28;20050;-67
2022/08/11 13:06:05;;;;;;;3.40;1.33;;;;;;;;;;4991755;28;20159;-67
2022/08/11 13:08:34;;;;;;;2.33;1.20;;;;;;;;;;4991685;28;20046;-67
2022/08/11 13:13:48;;;;;;;1.20;1.10;;;;;;;;;;4992988;28;20421;-68
2022/08/11 13:16:30;;;;;;;3.03;1.02;;;;;;;;;;4992433;28;20050;-67
2022/08/11 13:18:59;;;;;;;3.17;1.50;;;;;;;;;;4993493;28;20073;-67
2022/08/11 13:21:26;;;;;;;1.38;1.27;;;;;;;;;;4991606;28;20481;-67
2022/08/11 13:23:53;;;;;;;2.17;1.42;;;;;;;;;;4991431;28;20055;-67
2022/08/11 13:26:30;;;;;;;3.40;1.30;;;;;;;;;;4991284;28;20054;-68
2022/08/11 13:29:22;;;;;;;3.63;1.20;;;;;;;;;;5006688;28;20476;-67
2022/08/11 13:31:49;;;;;;;2.05;1.00;;;;;;;;;;5011926;28;20104;-68
2022/08/11 13:34:17;;;;;;;1.85;1.45;;;;;;;;;;5011419;28;20493;-67
2022/08/11 13:36:46;;;;;;;1.63;1.02;;;;;;;;;;5010997;28;20367;-67
2022/08/11 13:39:12;;;;;;;1.55;1.45;;;;;;;;;;4995071;28;20520;-68
2022/08/11 13:41:41;;;;;;;2.40;1.17;;;;;;;;;;4991173;28;20050;-67
2022/08/11 13:44:09;;;;;;;2.35;1.42;;;;;;;;;;4990723;28;20054;-67
2022/08/11 13:46:36;;;;;;;3.78;1.27;;;;;;;;;;4992264;28;20085;-67
2022/08/11 13:49:07;;;;;;;1.10;1.00;;;;;;;;;;5004647;28;20089;-68
2022/08/11 13:51:37;;;;;;;1.67;1.27;;;;;;;;;;5012343;28;20101;-67
2022/08/11 13:54:05;;;;;;;1.70;1.00;;;;;;;;;;5010597;28;20054;-68
2022/08/11 13:56:33;;;;;;;4.25;1.27;;;;;;;;;;5027283;28;20057;-68
2022/08/11 13:59:01;;;;;;;1.80;1.15;;;;;;;;;;4997044;28;20047;-68
2022/08/11 14:01:30;;;;;;;1.20;1.05;;;;;;;;;;4990909;28;20489;-68
2022/08/11 14:04:39;;;;;;;3.70;1.20;;;;;;;;;;4991188;28;20054;-67
2022/08/11 14:07:08;;;;;;;1.90;1.48;;;;;;;;;;4991048;28;20055;-67
2022/08/11 14:09:39;;;;;;;1.70;1.13;;;;;;;;;;5011045;28;20058;-68
2022/08/11 14:15:09;;;;;;;4.10;1.20;;;;;;;;;;5014609;28;20061;-67
2022/08/11 14:17:37;;;;;;;1.20;1.10;;;;;;;;;;5013742;28;20056;-67
2022/08/11 14:20:16;;;;;;;2.58;0.98;;;;;;;;;;4994479;28;20056;-67
2022/08/11 14:23:03;;;;;;;2.38;1.08;;;;;;;;;;5008023;28;20065;-67
2022/08/11 14:25:30;;;;;;;1.67;0.90;;;;;;;;;;5041445;22;20045;-68
2022/08/11 14:28:16;;;;;;;2.47;1.42;;;;;;;;;;5019033;28;20056;-68
2022/08/11 14:31:02;;;;;;;5.43;1.17;;;;;;;;;;5019416;28;20141;-68
2022/08/11 14:33:30;;;;;;;3.53;1.60;;;;;;;;;;5016753;28;20060;-68
2022/08/11 14:36:16;;;;;;;1.10;1.00;;;;;;;;;;5013310;28;20058;-67
2022/08/11 14:38:43;;;;;;;1.60;1.15;;;;;;;;;;5003116;28;20053;-68
2022/08/11 14:49:27;;;;;;;3.15;1.38;;;;;;;;;;5008344;28;20046;-67
2022/08/11 14:51:54;;;;;;;1.45;1.15;;;;;;;;;;5012819;28;20050;-67
2022/08/11 14:57:10;;;;;;;2.97;1.40;;;;;;;;;;5003224;28;20427;-74
2022/08/11 14:59:37;;;;;;;2.47;1.20;;;;;;;;;;5003357;28;20038;-69
2022/08/11 15:04:50;;;;;;;1.38;1.25;;;;;;;;;;5002357;28;20502;-70
2022/08/11 15:07:18;;;;;;;2.33;1.35;;;;;;;;;;5001679;28;20081;-69
2022/08/11 15:09:45;;;;;;;4.40;1.52;;;;;;;;;;4989125;28;20043;-69
2022/08/11 15:12:33;;;;;;;3.42;1.33;;;;;;;;;;5000924;28;20137;-69
2022/08/11 15:17:47;;;;;;;1.55;1.45;;;;;;;;;;4993479;28;20049;-70
2022/08/11 15:26:02;;;;;;;2.42;1.27;;;;;;;;;;5008865;28;20489;-69
2022/08/11 15:46:01;;;;;;;4.38;1.20;;;;;;;;;;5002519;28;20054;-73
2022/08/11 15:48:32;;;;;;;2.53;1.10;;;;;;;;;;5018456;28;20046;-74
2022/08/11 15:51:11;;;;;;;1.95;1.00;;;;;;;;;;5018425;28;20386;-76
2022/08/11 15:53:41;;;;;;;2.25;1.30;;;;;;;;;;4993866;28;20049;-75
2022/08/11 15:56:09;;;;;;;1.77;1.10;;;;;;;;;;4999869;28;20528;-73
2022/08/11 16:04:34;;;;;;;1.55;1.42;;;;;;;;;;4994463;28;20057;-75
2022/08/11 16:07:12;;;;;;;3.95;1.50;;;;;;;;;;4992062;28;20050;-75
2022/08/11 16:09:49;;;;;;;3.30;1.60;;;;;;;;;;5014993;28;20057;-75
2022/08/11 16:12:30;;;;;;;2.45;1.42;;;;;;;;;;5006730;28;20117;-75
2022/08/11 16:17:49;;;;;;;1.23;1.00;;;;;;;;;;4995577;28;20423;-69
2022/08/11 16:20:18;;;;;;;1.70;1.42;;;;;;;;;;5000904;28;20046;-69
2022/08/11 16:22:46;;;;;;;1.75;1.20;;;;;;;;;;4987112;28;20046;-69
2022/08/11 16:25:27;;;;;;;3.53;1.30;;;;;;;;;;4994727;28;20129;-68
2022/08/11 16:28:15;;;;;;;4.03;1.30;;;;;;;;;;5015249;28;20504;-67
2022/08/11 16:30:42;;;;;;;3.40;1.27;;;;;;;;;;4998843;28;20054;-67
2022/08/11 16:33:09;;;;;;;3.28;1.30;;;;;;;;;;5001492;28;20053;-69
2022/08/11 16:38:41;;;;;;;1.40;1.30;;;;;;;;;;4987742;28;20401;-68
2022/08/11 16:41:13;;;;;;;1.83;1.30;;;;;;;;;;5002346;28;20052;-66
2022/08/11 16:49:23;;;;;;;2.10;1.30;;;;;;;;;;4992147;28;20420;-73
2022/08/11 16:51:51;;;;;;;1.83;1.23;;;;;;;;;;4981816;28;20050;-70
2022/08/11 16:54:18;;;;;;;2.30;1.17;;;;;;;;;;5014380;28;20057;-71
2022/08/11 16:56:51;;;;;;;2.95;2.05;;;;;;;;;;5001720;28;20079;-69
2022/08/11 16:59:32;;;;;;;1.55;1.45;;;;;;;;;;5003023;28;20054;-70
2022/08/11 17:02:11;;;;;;;2.80;1.27;;;;;;;;;;4997037;28;20057;-71
2022/08/11 17:13:31;;;;;;;2.70;1.35;;;;;;;;;;4991714;28;20465;-70
2022/08/11 17:16:06;;;;;;;4.75;1.25;;;;;;;;;;5015561;28;20570;-71
2022/08/11 17:18:44;;;;;;;1.73;1.45;;;;;;;;;;4986502;28;20050;-69
2022/08/11 17:21:15;;;;;;;2.45;1.30;;;;;;;;;;5014053;28;20132;-68
2022/08/11 17:23:48;;;;;;;3.55;1.20;;;;;;;;;;4997483;28;20050;-70
2022/08/11 17:29:23;;;;;;;2.60;1.42;;;;;;;;;;4999569;28;20069;-70
2022/08/11 17:37:20;;;;;;;1.52;1.33;;;;;;;;;;4991222;28;20069;-70
2022/08/11 17:39:47;;;;;;;2.03;1.30;;;;;;;;;;4982156;28;20046;-73
2022/08/11 17:50:33;;;;;;;4.57;1.42;;;;;;;;;;4995091;28;20053;-73
2022/08/11 18:01:38;;;;;;;2.20;1.80;;;;;;;;;;5006176;28;20057;-73
2022/08/11 18:04:07;;;;;;;3.30;1.42;;;;;;;;;;4969782;28;20108;-73
2022/08/11 18:06:33;;;;;;;2.67;1.52;;;;;;;;;;5016903;28;20046;-73
